Agnew, NE

5:26 PM CDT on July 02, 2015 (GMT -0500)
Raymond, NE | | Change Station
CLOSE
Current Station
Personal Weather Station
Location: Raymond, NE
Elevation: 1309 ft
Nearby Weather Stations

Elev 1309 ft 40.98 °N, 96.78 °W | Updated 1 minute ago

Mostly Cloudy
Mostly Cloudy
71.1 °F
Feels Like 71.1 °F
N
7.0
Wind Variable Wind from East
Gusts 12.0 mph

Today
High -- | Low -- °F
--% Chance of Precip.
Yesterday
High -- | Low -- °F
Precip. -- in
5:59 AM 9:02 PM
Full, 99% visible
Pressure 29.92 in
Visibility 10.0 miles
Clouds Mostly Cloudy 1800 ft
Overcast 3600 ft
Dew Point 67 °F
Humidity 87%
Rainfall 0.45 in
Snow Depth Not available.
UV 2 out of 12
Pollen 3.50 out of 12
Air Quality Not available.
Flu Activity Not available.
SPECI KLNK 022218Z 10007KT 10SM BKN018 OVC036 24/19 A2992 RMK AO2 T02390194

More Conditions Fewer Conditions

Pressure 29.92 in
Visibility 10.0 miles
Clouds Mostly Cloudy 1800 ft
Overcast 3600 ft
Dew Point 67 °F
Humidity 87%
Rainfall 0.45 in
Snow Depth Not available.
UV 2 out of 12
Pollen 3.50 out of 12
Air Quality Not available.
Flu Activity Not available.
SPECI KLNK 022218Z 10007KT 10SM BKN018 OVC036 24/19 A2992 RMK AO2 T02390194

More Conditions Fewer Conditions

10-Day Weather Forecast

×

Almanac

Astronomy

Jul. 02, 2015 Rise Set
Actual Time
Civil Twilight
Nautical Twilight
Astronomical Twilight
Moon
Length of Visible Light
Length of Day
Tomorrow will be .
, % of the Moon is Illuminated

Today's Extremes

State Highs State Lows

Community

WunderPhotos

Upload Photos

1,834,561 photos uploaded!

WunderBlogs® & News

Nearby

Air Quality

  Air Quality AQ Index Pollutant
Not available.

Snow Depth

Station Depth Elevation

Earthquake Activity

City Distance Mag. Time & Date
Minimum magnitude displayed is 2.5.

Coastal Water Temperatures

Place Temperature

Stations

Nearby Weather Stations

Station Location Temp. Windchill Dew Point Humidity Wind Precip. Elev Updated Type